createdAt,value
2023-05-22T00:01:51.743Z,2.15
2023-05-22T00:04:21.497Z,2.65
2023-05-22T00:06:49.005Z,2.28
2023-05-22T00:09:15.866Z,2.63
2023-05-22T00:11:42.983Z,2.28
2023-05-22T00:14:09.797Z,2.42
2023-05-22T00:16:36.617Z,2.55
2023-05-22T00:19:03.828Z,2.17
2023-05-22T00:21:34.761Z,2.85
2023-05-22T00:24:02.079Z,2.75
2023-05-22T00:26:28.844Z,2.67
2023-05-22T00:28:55.754Z,2.00
2023-05-22T00:31:23.217Z,2.60
2023-05-22T00:33:50.121Z,2.63
2023-05-22T00:36:18.666Z,2.80
2023-05-22T00:38:46.237Z,2.20
2023-05-22T00:41:13.343Z,2.50
2023-05-22T00:43:40.236Z,2.17
2023-05-22T00:46:09.956Z,2.25
2023-05-22T00:48:37.005Z,2.20
2023-05-22T00:51:04.453Z,1.63
2023-05-22T00:53:31.752Z,2.15
2023-05-22T00:55:59.682Z,2.10
2023-05-22T00:58:27.212Z,2.92
2023-05-22T01:00:55.318Z,2.72
2023-05-22T01:03:26.728Z,2.33
2023-05-22T01:05:55.129Z,2.78
2023-05-22T01:08:23.091Z,2.55
2023-05-22T01:11:01.985Z,2.63
2023-05-22T01:14:04.946Z,2.90
2023-05-22T01:16:46.707Z,2.75
2023-05-22T01:19:50.520Z,3.03
2023-05-22T01:22:46.086Z,2.25
2023-05-22T01:25:40.208Z,2.50
2023-05-22T01:28:34.768Z,2.92
2023-05-22T01:31:15.723Z,2.13
2023-05-22T01:33:48.204Z,2.80
2023-05-22T01:36:20.045Z,3.05
2023-05-22T01:38:47.260Z,3.17
2023-05-22T01:41:14.375Z,2.53
2023-05-22T01:43:42.257Z,2.95
2023-05-22T01:46:09.074Z,2.53
2023-05-22T01:48:36.184Z,2.65
2023-05-22T01:51:44.668Z,2.42
2023-05-22T01:54:18.188Z,2.78
2023-05-22T01:56:51.774Z,2.20
2023-05-22T01:59:21.702Z,2.45
2023-05-22T02:01:51.417Z,2.55
2023-05-22T02:04:21.605Z,3.08
2023-05-22T02:06:50.446Z,3.03
2023-05-22T02:09:18.309Z,2.53
2023-05-22T02:11:46.827Z,2.67
2023-05-22T02:14:13.834Z,2.83
2023-05-22T02:16:42.333Z,3.25
2023-05-22T02:19:09.240Z,2.85
2023-05-22T02:21:36.249Z,2.50
2023-05-22T02:24:03.369Z,2.72
2023-05-22T02:26:30.122Z,3.10
2023-05-22T02:28:57.021Z,3.17
2023-05-22T02:31:26.259Z,1.88
2023-05-22T02:33:53.084Z,2.95
2023-05-22T02:36:20.598Z,2.70
2023-05-22T02:38:47.974Z,2.70
2023-05-22T02:41:14.875Z,2.50
2023-05-22T02:43:41.728Z,3.10
2023-05-22T02:46:08.558Z,3.20
2023-05-22T02:48:35.407Z,3.00
2023-05-22T02:51:02.226Z,3.30
2023-05-22T02:53:28.975Z,2.88
2023-05-22T02:55:58.788Z,2.17
2023-05-22T02:58:25.634Z,3.35
2023-05-22T03:00:53.642Z,3.58
2023-05-22T03:03:20.480Z,2.80
2023-05-22T03:05:47.382Z,3.05
2023-05-22T03:08:15.872Z,2.92
2023-05-22T03:10:42.647Z,2.97
2023-05-22T03:13:09.433Z,3.03
2023-05-22T03:15:36.529Z,2.90
2023-05-22T03:18:11.497Z,3.00
2023-05-22T03:20:39.632Z,3.13
2023-05-22T03:23:06.776Z,3.38
2023-05-22T03:25:33.745Z,3.28
2023-05-22T03:28:01.025Z,3.42
2023-05-22T03:30:31.158Z,2.75
2023-05-22T03:33:09.865Z,2.53
2023-05-22T03:35:36.831Z,3.63
2023-05-22T03:38:03.562Z,2.80
2023-05-22T03:40:30.374Z,3.35
2023-05-22T03:42:57.082Z,2.60
2023-05-22T03:45:24.241Z,3.25
2023-05-22T03:47:51.511Z,3.47
2023-05-22T03:50:18.339Z,3.08
2023-05-22T03:52:45.428Z,3.10
2023-05-22T03:55:12.179Z,3.38
2023-05-22T03:57:38.934Z,3.47
2023-05-22T04:00:12.728Z,3.63
2023-05-22T04:02:44.995Z,4.00
2023-05-22T04:05:12.248Z,3.30
2023-05-22T04:07:38.983Z,3.38
2023-05-22T04:10:06.722Z,2.80
2023-05-22T04:12:33.579Z,3.00
2023-05-22T04:15:00.412Z,2.67
2023-05-22T04:17:32.999Z,3.70
2023-05-22T04:20:00.626Z,2.83
2023-05-22T04:22:27.588Z,3.03
2023-05-22T04:24:54.306Z,5.32
2023-05-22T04:27:22.479Z,5.40
2023-05-22T04:29:50.398Z,4.18
2023-05-22T04:32:23.995Z,4.15
2023-05-22T04:34:51.176Z,3.95
2023-05-22T04:37:20.074Z,4.32
2023-05-22T04:39:47.339Z,4.38
2023-05-22T04:42:14.536Z,4.32
2023-05-22T04:44:42.247Z,3.33
2023-05-22T04:47:14.268Z,4.00
2023-05-22T04:49:42.425Z,4.38
2023-05-22T04:52:11.590Z,4.05
2023-05-22T04:54:43.241Z,4.35
2023-05-22T04:57:10.131Z,4.50
2023-05-22T04:59:41.304Z,4.68
2023-05-22T05:02:08.945Z,4.45
2023-05-22T05:04:36.388Z,4.63
2023-05-22T05:07:05.054Z,4.15
2023-05-22T05:09:32.376Z,4.55
2023-05-22T05:11:59.183Z,4.07
2023-05-22T05:14:26.392Z,5.10
2023-05-22T05:16:53.301Z,4.68
2023-05-22T05:19:24.105Z,4.72
2023-05-22T05:21:50.907Z,4.22
2023-05-22T05:24:18.165Z,5.22
2023-05-22T05:26:45.825Z,4.32
2023-05-22T05:29:12.762Z,4.07
2023-05-22T05:31:46.967Z,3.95
2023-05-22T05:34:33.968Z,4.00
2023-05-22T05:37:05.923Z,4.85
2023-05-22T05:39:33.342Z,3.92
2023-05-22T05:42:02.709Z,4.57
2023-05-22T05:44:29.880Z,4.80
2023-05-22T05:46:57.316Z,4.00
2023-05-22T05:49:24.156Z,4.00
2023-05-22T05:51:51.217Z,4.43
2023-05-22T05:54:19.326Z,4.85
2023-05-22T05:56:46.339Z,4.13
2023-05-22T05:59:13.253Z,4.50
2023-05-22T06:02:15.619Z,3.67
2023-05-22T06:04:48.454Z,4.68
2023-05-22T06:07:17.406Z,5.70
2023-05-22T06:09:46.461Z,4.72
2023-05-22T06:12:21.243Z,4.97
2023-05-22T06:14:48.223Z,4.60
2023-05-22T06:17:15.812Z,4.22
2023-05-22T06:19:44.143Z,5.53
2023-05-22T06:22:11.121Z,4.07
2023-05-22T06:24:40.110Z,5.05
2023-05-22T06:29:39.843Z,5.05
2023-05-22T06:32:07.913Z,5.00
2023-05-22T06:34:36.488Z,4.82
2023-05-22T06:37:03.756Z,5.18
2023-05-22T06:39:36.014Z,5.05
2023-05-22T06:42:33.096Z,5.15
2023-05-22T06:45:29.055Z,4.78
2023-05-22T06:48:19.907Z,4.13
2023-05-22T06:51:16.238Z,4.57
2023-05-22T06:53:45.397Z,5.93
2023-05-22T06:56:17.450Z,4.82
2023-05-22T06:59:07.238Z,4.72
2023-05-22T07:01:52.780Z,4.45
2023-05-22T07:04:29.150Z,4.65
2023-05-22T07:06:58.645Z,4.78
2023-05-22T07:09:26.018Z,5.00
2023-05-22T07:11:53.519Z,5.25
2023-05-22T07:14:21.242Z,4.57
2023-05-22T07:16:48.108Z,4.43
2023-05-22T07:19:20.831Z,4.13
2023-05-22T07:21:48.104Z,4.38
2023-05-22T07:24:18.052Z,5.00
2023-05-22T07:26:46.500Z,4.70
2023-05-22T07:29:14.301Z,4.68
2023-05-22T07:31:42.247Z,5.43
2023-05-22T07:34:10.478Z,4.43
2023-05-22T07:36:37.523Z,4.85
2023-05-22T07:39:05.333Z,4.65
2023-05-22T07:41:36.162Z,3.78
2023-05-22T07:44:03.361Z,4.00
2023-05-22T07:46:35.511Z,3.95
2023-05-22T07:49:10.822Z,4.90
2023-05-22T07:51:41.109Z,5.65
2023-05-22T07:54:10.021Z,4.47
2023-05-22T07:56:43.115Z,4.50
2023-05-22T07:59:12.094Z,3.35
2023-05-22T08:01:40.353Z,3.70
2023-05-22T08:04:07.337Z,4.30
2023-05-22T08:06:37.358Z,4.43
2023-05-22T08:09:07.190Z,4.10
2023-05-22T08:11:34.165Z,4.40
2023-05-22T08:14:01.005Z,3.92
2023-05-22T08:16:27.871Z,3.67
2023-05-22T08:18:54.697Z,4.72
2023-05-22T08:21:21.569Z,3.78
2023-05-22T08:23:48.386Z,3.58
2023-05-22T08:26:15.954Z,3.95
2023-05-22T08:28:44.333Z,3.38
2023-05-22T08:31:21.152Z,3.80
2023-05-22T08:33:48.160Z,3.85
2023-05-22T08:36:15.332Z,3.30
2023-05-22T08:38:42.239Z,3.60
2023-05-22T08:41:10.349Z,3.60
2023-05-22T08:43:37.355Z,3.50
2023-05-22T08:46:05.773Z,4.20
2023-05-22T08:48:33.130Z,3.63
2023-05-22T08:51:13.250Z,3.97
2023-05-22T08:53:42.662Z,3.13
2023-05-22T08:56:10.435Z,3.85
2023-05-22T08:58:38.208Z,3.30
2023-05-22T09:01:08.845Z,3.30
2023-05-22T09:03:36.717Z,3.58
2023-05-22T09:06:04.586Z,4.53
2023-05-22T09:08:31.356Z,3.35
2023-05-22T09:10:58.153Z,3.83
2023-05-22T09:13:31.713Z,4.28
2023-05-22T09:16:00.833Z,4.00
2023-05-22T09:18:29.202Z,3.40
2023-05-22T09:20:58.544Z,3.80
2023-05-22T09:23:28.060Z,3.63
2023-05-22T09:26:00.108Z,3.30
2023-05-22T09:28:28.990Z,3.63
2023-05-22T09:30:56.237Z,3.33
2023-05-22T09:33:23.979Z,3.20
2023-05-22T09:35:52.694Z,3.10
2023-05-22T09:38:21.544Z,3.38
2023-05-22T09:40:53.424Z,3.83
2023-05-22T09:43:21.370Z,4.10
2023-05-22T09:45:48.151Z,3.50
2023-05-22T09:48:17.403Z,3.75
2023-05-22T09:50:48.830Z,3.88
2023-05-22T09:53:18.389Z,3.30
2023-05-22T09:55:48.299Z,3.35
2023-05-22T09:58:19.046Z,3.00
2023-05-22T10:00:48.435Z,3.53
2023-05-22T10:03:17.332Z,3.13
2023-05-22T10:05:48.587Z,3.85
2023-05-22T10:08:20.575Z,3.50
2023-05-22T10:10:53.256Z,3.97
2023-05-22T10:13:20.912Z,3.20
2023-05-22T10:15:49.391Z,3.72
2023-05-22T10:18:17.319Z,3.28
2023-05-22T10:20:47.006Z,3.42
2023-05-22T10:23:16.467Z,3.10
2023-05-22T10:25:44.551Z,3.47
2023-05-22T10:28:14.590Z,3.92
2023-05-22T10:30:42.642Z,2.97
2023-05-22T10:33:29.397Z,3.47
2023-05-22T10:36:01.756Z,3.58
2023-05-22T10:38:53.064Z,4.30
2023-05-22T10:41:20.095Z,3.25
2023-05-22T10:43:49.818Z,3.38
2023-05-22T10:46:17.639Z,3.50
2023-05-22T10:48:46.251Z,3.67
2023-05-22T10:51:14.687Z,2.47
2023-05-22T10:53:45.065Z,3.60
2023-05-22T10:56:16.405Z,2.97
2023-05-22T10:58:55.568Z,2.92
2023-05-22T11:01:26.285Z,4.07
2023-05-22T11:04:18.737Z,3.30
2023-05-22T11:07:06.808Z,3.40
2023-05-22T11:12:25.120Z,3.72
2023-05-22T11:14:59.973Z,3.60
2023-05-22T11:17:28.118Z,3.80
2023-05-22T11:20:05.801Z,4.07
2023-05-22T11:22:41.728Z,4.15
2023-05-22T11:25:16.721Z,3.67
2023-05-22T11:27:44.693Z,3.22
2023-05-22T11:30:12.807Z,3.90
2023-05-22T11:32:43.818Z,3.90
2023-05-22T11:35:21.498Z,3.38
2023-05-22T11:37:49.850Z,4.40
2023-05-22T11:40:29.259Z,3.60
2023-05-22T11:42:57.256Z,3.85
2023-05-22T11:45:24.301Z,3.83
2023-05-22T11:47:51.314Z,3.83
2023-05-22T11:50:29.215Z,3.17
2023-05-22T11:53:02.809Z,4.55
2023-05-22T11:55:29.601Z,3.65
2023-05-22T11:57:56.596Z,3.33
2023-05-22T12:00:23.519Z,3.67
2023-05-22T12:02:50.453Z,3.92
2023-05-22T12:05:20.182Z,3.20
2023-05-22T12:07:47.104Z,3.15
2023-05-22T12:10:14.786Z,3.55
2023-05-22T12:12:43.480Z,3.22
2023-05-22T12:15:10.850Z,2.80
2023-05-22T12:17:38.438Z,3.63
2023-05-22T12:20:07.060Z,3.60
2023-05-22T12:22:33.821Z,2.80
2023-05-22T12:25:00.645Z,3.72
2023-05-22T12:27:33.013Z,4.15
2023-05-22T12:32:34.915Z,3.22
2023-05-22T12:35:01.663Z,3.22
2023-05-22T12:37:28.621Z,4.25
2023-05-22T12:39:56.647Z,3.35
2023-05-22T12:42:23.996Z,3.53
2023-05-22T12:44:53.030Z,3.50
2023-05-22T12:47:19.995Z,3.47
2023-05-22T12:49:46.753Z,2.95
2023-05-22T12:52:13.483Z,3.35
2023-05-22T12:54:40.747Z,3.47
2023-05-22T12:57:07.650Z,3.33
2023-05-22T12:59:34.680Z,3.60
2023-05-22T13:02:03.180Z,3.42
2023-05-22T13:04:30.037Z,4.15
2023-05-22T13:06:56.806Z,3.40
2023-05-22T13:09:23.705Z,3.40
2023-05-22T13:11:50.680Z,3.28
2023-05-22T13:14:17.819Z,3.30
2023-05-22T13:16:44.651Z,3.20
2023-05-22T13:19:11.737Z,3.25
2023-05-22T13:21:38.646Z,2.97
2023-05-22T13:24:05.774Z,2.90
2023-05-22T13:26:32.836Z,3.45
2023-05-22T13:28:59.704Z,3.45
2023-05-22T13:31:26.713Z,3.40
2023-05-22T13:33:53.732Z,3.03
2023-05-22T13:36:21.210Z,3.42
2023-05-22T13:38:48.130Z,3.47
2023-05-22T13:41:15.525Z,3.30
2023-05-22T13:43:42.452Z,3.30
2023-05-22T13:46:09.399Z,2.88
2023-05-22T13:48:36.200Z,3.58
2023-05-22T13:51:03.173Z,2.88
2023-05-22T13:53:29.901Z,3.50
2023-05-22T13:55:56.673Z,4.07
2023-05-22T13:58:23.444Z,3.55
2023-05-22T14:00:50.309Z,4.05
2023-05-22T14:03:17.581Z,3.70
2023-05-22T14:05:45.142Z,3.35
2023-05-22T14:08:12.640Z,3.22
2023-05-22T14:10:39.652Z,3.60
2023-05-22T14:13:06.574Z,3.30
2023-05-22T14:15:33.375Z,3.75
2023-05-22T14:18:00.884Z,3.10
2023-05-22T14:20:27.818Z,3.28
2023-05-22T14:22:57.760Z,4.25
2023-05-22T14:25:26.319Z,4.65
2023-05-22T14:27:53.105Z,4.80
2023-05-22T14:30:19.980Z,5.88
2023-05-22T14:32:46.924Z,4.40
2023-05-22T14:35:13.956Z,5.30
2023-05-22T14:37:40.744Z,4.45
2023-05-22T14:40:08.223Z,5.13
2023-05-22T14:42:36.204Z,5.82
2023-05-22T14:45:06.078Z,5.18
2023-05-22T14:47:32.861Z,5.70
2023-05-22T14:50:14.073Z,7.00
2023-05-22T14:52:45.613Z,4.57
2023-05-22T14:55:12.471Z,5.05
2023-05-22T14:57:39.373Z,5.22
2023-05-22T15:00:08.783Z,5.45
2023-05-22T15:02:36.122Z,5.30
2023-05-22T15:05:02.995Z,5.05
2023-05-22T15:07:43.204Z,5.32
2023-05-22T15:10:11.299Z,5.80
2023-05-22T15:12:38.206Z,5.57
2023-05-22T15:15:05.589Z,5.63
2023-05-22T15:17:32.461Z,5.47
2023-05-22T15:19:59.420Z,4.53
2023-05-22T15:22:26.154Z,5.53
2023-05-22T15:25:11.471Z,6.43
2023-05-22T15:27:39.303Z,5.78
2023-05-22T15:30:06.935Z,5.60
2023-05-22T15:32:33.885Z,6.20
2023-05-22T15:35:00.837Z,5.68
2023-05-22T15:37:30.225Z,6.72
2023-05-22T15:39:58.322Z,5.05
2023-05-22T15:42:25.137Z,6.72
2023-05-22T15:44:51.911Z,6.70
2023-05-22T15:47:18.769Z,7.10
2023-05-22T15:49:45.833Z,6.45
2023-05-22T15:52:12.586Z,7.10
2023-05-22T15:54:39.661Z,6.25
2023-05-22T15:57:06.444Z,7.43
2023-05-22T15:59:33.221Z,6.90
2023-05-22T16:02:00.074Z,7.47
2023-05-22T16:04:26.852Z,6.88
2023-05-22T16:06:53.594Z,6.28
2023-05-22T16:09:20.472Z,7.60
2023-05-22T16:11:47.312Z,7.68
2023-05-22T16:14:14.093Z,7.22
2023-05-22T16:16:40.998Z,7.05
2023-05-22T16:19:08.107Z,6.70
2023-05-22T16:21:34.916Z,7.13
2023-05-22T16:24:01.688Z,7.15
2023-05-22T16:26:28.466Z,6.32
2023-05-22T16:28:55.290Z,7.15
2023-05-22T16:31:22.309Z,6.95
2023-05-22T16:33:49.298Z,6.65
2023-05-22T16:36:16.060Z,7.88
2023-05-22T16:38:42.865Z,7.22
2023-05-22T16:41:09.636Z,6.03
2023-05-22T16:43:37.613Z,6.35
2023-05-22T16:46:04.469Z,8.65
2023-05-22T16:48:31.200Z,6.90
2023-05-22T16:50:57.939Z,6.95
2023-05-22T16:53:24.774Z,6.78
2023-05-22T16:55:51.919Z,7.25
2023-05-22T16:58:19.136Z,7.43
2023-05-22T17:00:46.246Z,7.35
2023-05-22T17:03:14.094Z,6.50
2023-05-22T17:05:41.402Z,6.10
2023-05-22T17:08:08.679Z,6.85
2023-05-22T17:10:35.627Z,5.95
2023-05-22T17:13:02.354Z,6.28
2023-05-22T17:15:29.122Z,5.80
2023-05-22T17:17:55.862Z,5.55
2023-05-22T17:20:22.996Z,5.10
2023-05-22T17:22:50.120Z,7.43
2023-05-22T17:33:58.406Z,4.85
2023-05-22T17:36:25.288Z,4.82
2023-05-22T17:38:51.994Z,5.03
2023-05-22T17:41:18.698Z,4.88
2023-05-22T17:43:45.526Z,5.07
2023-05-22T17:46:12.527Z,4.68
2023-05-22T17:48:40.938Z,4.57
2023-05-22T17:51:07.803Z,5.13
2023-05-22T17:53:36.699Z,4.25
2023-05-22T17:56:04.906Z,4.90
2023-05-22T17:58:31.733Z,4.63
2023-05-22T18:00:58.465Z,5.38
2023-05-22T18:03:26.277Z,4.07
2023-05-22T18:05:53.184Z,4.65
2023-05-22T18:08:21.200Z,3.72
2023-05-22T18:10:48.915Z,4.25
2023-05-22T18:13:15.781Z,4.10
2023-05-22T18:15:42.647Z,4.85
2023-05-22T18:18:11.386Z,4.13
2023-05-22T18:20:39.961Z,4.38
2023-05-22T18:23:06.999Z,4.28
2023-05-22T18:25:33.811Z,4.72
2023-05-22T18:28:00.552Z,4.10
2023-05-22T18:30:27.436Z,4.90
2023-05-22T18:32:54.267Z,4.57
2023-05-22T18:35:21.520Z,5.10
2023-05-22T18:37:48.320Z,4.70
2023-05-22T18:40:16.311Z,4.32
2023-05-22T18:42:43.437Z,3.83
2023-05-22T18:45:11.651Z,4.07
2023-05-22T18:47:38.505Z,4.63
2023-05-22T18:50:05.727Z,4.05
2023-05-22T18:52:32.540Z,4.07
2023-05-22T18:54:59.349Z,4.60
2023-05-22T18:57:26.063Z,3.60
2023-05-22T18:59:52.832Z,3.47
2023-05-22T19:02:21.798Z,3.78
2023-05-22T19:04:49.959Z,3.38
2023-05-22T19:07:16.900Z,3.78
2023-05-22T19:09:43.906Z,3.97
2023-05-22T19:12:10.751Z,3.53
2023-05-22T19:14:37.510Z,3.67
2023-05-22T19:17:04.511Z,4.07
2023-05-22T19:19:31.453Z,3.38
2023-05-22T19:21:58.393Z,3.83
2023-05-22T19:24:27.284Z,4.00
2023-05-22T19:26:54.051Z,2.70
2023-05-22T19:29:20.982Z,3.65
2023-05-22T19:31:47.883Z,3.55
2023-05-22T19:34:14.775Z,3.42
2023-05-22T19:36:41.608Z,3.63
2023-05-22T19:39:08.318Z,3.22
2023-05-22T19:41:35.068Z,3.75
2023-05-22T19:44:01.808Z,2.80
2023-05-22T19:46:28.634Z,3.50
2023-05-22T19:48:55.589Z,3.30
2023-05-22T19:51:22.320Z,3.60
2023-05-22T19:53:49.169Z,3.13
2023-05-22T19:56:16.008Z,3.42
2023-05-22T19:58:43.491Z,3.80
2023-05-22T20:01:10.481Z,2.95
2023-05-22T20:03:37.662Z,3.65
2023-05-22T20:06:04.704Z,2.70
2023-05-22T20:08:31.403Z,2.85
2023-05-22T20:10:58.164Z,3.03
2023-05-22T20:13:24.910Z,2.88
2023-05-22T20:15:53.353Z,2.85
2023-05-22T20:18:22.053Z,2.92
2023-05-22T20:20:49.457Z,2.92
2023-05-22T20:23:16.186Z,2.40
2023-05-22T20:25:43.166Z,3.10
2023-05-22T20:28:10.072Z,2.42
2023-05-22T20:30:36.792Z,3.13
2023-05-22T20:33:03.754Z,3.22
2023-05-22T20:35:30.999Z,2.40
2023-05-22T20:38:02.877Z,3.03
2023-05-22T20:40:32.201Z,2.92
2023-05-22T20:43:02.385Z,3.38
2023-05-22T20:45:32.824Z,3.75
2023-05-22T20:48:00.405Z,3.13
2023-05-22T20:50:27.295Z,2.80
2023-05-22T20:52:54.144Z,3.13
2023-05-22T20:55:21.118Z,3.00
2023-05-22T20:57:48.342Z,2.70
2023-05-22T21:00:15.290Z,3.40
2023-05-22T21:02:42.206Z,3.08
2023-05-22T21:05:09.479Z,3.03
2023-05-22T21:07:36.430Z,3.10
2023-05-22T21:10:03.448Z,3.15
2023-05-22T21:12:30.331Z,3.70
2023-05-22T21:14:57.225Z,3.65
2023-05-22T21:17:24.948Z,3.55
2023-05-22T21:19:51.935Z,2.97
2023-05-22T21:22:18.667Z,3.30
2023-05-22T21:24:45.467Z,3.35
2023-05-22T21:27:12.229Z,3.63
2023-05-22T21:29:38.998Z,4.00
2023-05-22T21:32:06.071Z,4.70
2023-05-22T21:34:32.815Z,3.58
2023-05-22T21:36:59.608Z,4.18
2023-05-22T21:39:26.385Z,3.38
2023-05-22T21:41:53.214Z,3.13
2023-05-22T21:44:19.936Z,3.83
2023-05-22T21:46:46.774Z,4.13
2023-05-22T21:49:13.604Z,3.63
2023-05-22T21:51:40.445Z,3.42
2023-05-22T21:54:07.195Z,3.10
2023-05-22T21:56:33.948Z,5.40
2023-05-22T21:59:00.836Z,3.20
2023-05-22T22:01:27.642Z,3.90
2023-05-22T22:03:54.435Z,4.22
2023-05-22T22:06:21.306Z,4.35
2023-05-22T22:08:48.143Z,3.30
2023-05-22T22:11:14.947Z,4.50
2023-05-22T22:13:41.822Z,3.70
2023-05-22T22:16:08.789Z,5.10
2023-05-22T22:18:36.912Z,4.25
2023-05-22T22:21:04.520Z,4.25
2023-05-22T22:23:31.314Z,3.63
2023-05-22T22:25:58.121Z,3.70
2023-05-22T22:28:24.961Z,4.55
2023-05-22T22:30:54.813Z,3.38
2023-05-22T22:33:22.763Z,4.18
2023-05-22T22:35:49.813Z,3.97
2023-05-22T22:38:16.713Z,3.90
2023-05-22T22:40:43.626Z,3.38
2023-05-22T22:43:10.352Z,3.55
2023-05-22T22:45:37.159Z,3.60
2023-05-22T22:48:04.067Z,3.33
2023-05-22T22:50:31.548Z,3.25
2023-05-22T22:52:58.261Z,3.78
2023-05-22T22:55:25.149Z,2.78
2023-05-22T22:57:52.233Z,3.50
2023-05-22T23:00:20.103Z,2.85
2023-05-22T23:02:47.014Z,4.20
2023-05-22T23:05:14.844Z,3.67
2023-05-22T23:07:41.774Z,3.80
2023-05-22T23:10:09.094Z,3.40
2023-05-22T23:12:36.271Z,3.85
2023-05-22T23:15:03.714Z,3.75
2023-05-22T23:17:30.693Z,3.67
2023-05-22T23:19:57.574Z,4.82
2023-05-22T23:22:24.381Z,4.15
2023-05-22T23:24:51.177Z,3.20
2023-05-22T23:27:18.224Z,3.65
2023-05-22T23:29:45.001Z,3.78
2023-05-22T23:32:13.876Z,4.03
2023-05-22T23:34:42.266Z,3.20
2023-05-22T23:37:09.580Z,4.03
2023-05-22T23:39:36.423Z,3.72
2023-05-22T23:42:03.302Z,3.70
2023-05-22T23:44:30.631Z,3.92
2023-05-22T23:46:57.735Z,3.92
2023-05-22T23:49:24.555Z,4.18
2023-05-22T23:51:51.391Z,3.53
2023-05-22T23:54:18.335Z,3.28
2023-05-22T23:56:45.272Z,3.65
2023-05-22T23:59:12.115Z,3.58
